AAL2312 KLAX-KPHX
Flight info
| Callsign | AAL2312 |
|---|---|
| Flight time | 0h 59m |
| Altitude | 37000 |
| Route | DOTSS2 CNERY BLH HYDRR1 |
| Aircraft | B77W/H-SDE1E2E3FGHIJ2J3J4J5M1RWXY/LB1D1 |
Departure
| Time | 2026-04-26 04:10 |
|---|---|
| Airport | Los Angeles International Airport (KLAX) |
Arrival
| Time | 2026-04-26 05:09 |
|---|---|
| Airport | Phoenix Sky Harbor International Airport (KPHX) |
| Time | Latitude | Longitude | Altitude | Speed | Heading |
|---|---|---|---|---|---|
| 2026-04-26 03:28 | 33.94102 | -118.40751 | 137 ft | 0 kts | 70° |
| 2026-04-26 03:53 | 33.94097 | -118.40765 | 137 ft | 2 kts | 70° |
| 2026-04-26 03:53 | 33.94092 | -118.40782 | 137 ft | 2 kts | 70° |
| 2026-04-26 03:53 | 33.94089 | -118.40794 | 137 ft | 2 kts | 84° |
| 2026-04-26 03:54 | 33.94090 | -118.40811 | 137 ft | 2 kts | 113° |
| 2026-04-26 03:54 | 33.94098 | -118.40826 | 137 ft | 2 kts | 136° |
| 2026-04-26 03:54 | 33.94110 | -118.40837 | 137 ft | 2 kts | 161° |
| 2026-04-26 03:54 | 33.94118 | -118.40839 | 137 ft | 0 kts | 174° |
| 2026-04-26 03:55 | 33.94122 | -118.40840 | 137 ft | 0 kts | 174° |
| 2026-04-26 03:56 | 33.94120 | -118.40839 | 137 ft | 0 kts | 174° |
| 2026-04-26 03:56 | 33.94110 | -118.40838 | 137 ft | 2 kts | 173° |
| 2026-04-26 03:56 | 33.94093 | -118.40836 | 137 ft | 1 kts | 172° |
| 2026-04-26 03:57 | 33.94076 | -118.40833 | 137 ft | 3 kts | 172° |
| 2026-04-26 03:57 | 33.94051 | -118.40829 | 137 ft | 4 kts | 172° |
| 2026-04-26 03:57 | 33.94019 | -118.40823 | 138 ft | 5 kts | 173° |
| 2026-04-26 03:57 | 33.93979 | -118.40817 | 138 ft | 6 kts | 173° |
| 2026-04-26 03:58 | 33.93932 | -118.40811 | 138 ft | 7 kts | 173° |
| 2026-04-26 03:58 | 33.93893 | -118.40792 | 139 ft | 5 kts | 141° |
| 2026-04-26 03:58 | 33.93866 | -118.40761 | 140 ft | 6 kts | 139° |
| 2026-04-26 03:58 | 33.93830 | -118.40722 | 141 ft | 7 kts | 129° |
| 2026-04-26 03:59 | 33.93815 | -118.40647 | 140 ft | 11 kts | 88° |
| 2026-04-26 03:59 | 33.93824 | -118.40534 | 137 ft | 15 kts | 83° |
| 2026-04-26 03:59 | 33.93838 | -118.40394 | 134 ft | 18 kts | 83° |
| 2026-04-26 03:59 | 33.93854 | -118.40232 | 131 ft | 20 kts | 83° |
| 2026-04-26 04:00 | 33.93871 | -118.40067 | 128 ft | 13 kts | 82° |
| 2026-04-26 04:00 | 33.93882 | -118.39970 | 127 ft | 6 kts | 83° |
| 2026-04-26 04:00 | 33.93888 | -118.39909 | 126 ft | 9 kts | 83° |
| 2026-04-26 04:00 | 33.93898 | -118.39809 | 125 ft | 14 kts | 83° |
| 2026-04-26 04:01 | 33.93913 | -118.39664 | 122 ft | 20 kts | 83° |
| 2026-04-26 04:01 | 33.93931 | -118.39490 | 119 ft | 19 kts | 83° |
| 2026-04-26 04:01 | 33.93948 | -118.39323 | 117 ft | 16 kts | 83° |
| 2026-04-26 04:01 | 33.93963 | -118.39173 | 116 ft | 18 kts | 84° |
| 2026-04-26 04:02 | 33.93977 | -118.39027 | 115 ft | 17 kts | 82° |
| 2026-04-26 04:02 | 33.93992 | -118.38884 | 114 ft | 17 kts | 83° |
| 2026-04-26 04:02 | 33.94008 | -118.38734 | 113 ft | 19 kts | 83° |
| 2026-04-26 04:02 | 33.94027 | -118.38547 | 112 ft | 24 kts | 83° |
| 2026-04-26 04:03 | 33.94049 | -118.38338 | 111 ft | 26 kts | 83° |
| 2026-04-26 04:03 | 33.94066 | -118.38168 | 109 ft | 10 kts | 83° |
| 2026-04-26 04:03 | 33.94071 | -118.38120 | 109 ft | 0 kts | 82° |
| 2026-04-26 04:03 | 33.94071 | -118.38119 | 109 ft | 0 kts | 82° |
| 2026-04-26 04:04 | 33.94072 | -118.38116 | 109 ft | 0 kts | 82° |
| 2026-04-26 04:05 | 33.94072 | -118.38107 | 109 ft | 1 kts | 82° |
| 2026-04-26 04:05 | 33.94074 | -118.38094 | 109 ft | 1 kts | 83° |
| 2026-04-26 04:05 | 33.94075 | -118.38077 | 109 ft | 2 kts | 85° |
| 2026-04-26 04:06 | 33.94076 | -118.38068 | 109 ft | 0 kts | 87° |
| 2026-04-26 04:06 | 33.94076 | -118.38067 | 109 ft | 0 kts | 87° |
| 2026-04-26 04:06 | 33.94076 | -118.38057 | 109 ft | 1 kts | 90° |
| 2026-04-26 04:07 | 33.94071 | -118.38036 | 109 ft | 3 kts | 117° |
| 2026-04-26 04:07 | 33.94048 | -118.38008 | 108 ft | 5 kts | 156° |
| 2026-04-26 04:07 | 33.94003 | -118.38014 | 108 ft | 7 kts | 216° |
| 2026-04-26 04:07 | 33.93980 | -118.38071 | 108 ft | 5 kts | 262° |
| 2026-04-26 04:08 | 33.93980 | -118.38075 | 108 ft | 0 kts | 262° |
| 2026-04-26 04:09 | 33.93979 | -118.38077 | 108 ft | 2 kts | 261° |
| 2026-04-26 04:09 | 33.93970 | -118.38155 | 109 ft | 25 kts | 263° |
| 2026-04-26 04:09 | 33.93914 | -118.38744 | 113 ft | 114 kts | 264° |
| 2026-04-26 04:10 | 33.93781 | -118.39996 | 160 ft | 182 kts | 264° |
| 2026-04-26 04:10 | 33.93587 | -118.41602 | 804 ft | 203 kts | 266° |
| 2026-04-26 04:10 | 33.93425 | -118.43210 | 2126 ft | 200 kts | 267° |
| 2026-04-26 04:10 | 33.93247 | -118.44984 | 2756 ft | 237 kts | 262° |
| 2026-04-26 04:11 | 33.92513 | -118.47006 | 3002 ft | 293 kts | 233° |
| 2026-04-26 04:11 | 33.90878 | -118.48368 | 4270 ft | 289 kts | 200° |
| 2026-04-26 04:11 | 33.88960 | -118.48868 | 5439 ft | 284 kts | 189° |
| 2026-04-26 04:11 | 33.86969 | -118.49214 | 6182 ft | 296 kts | 188° |
| 2026-04-26 04:12 | 33.84893 | -118.49558 | 7175 ft | 297 kts | 188° |
| 2026-04-26 04:12 | 33.82854 | -118.49895 | 8236 ft | 294 kts | 189° |
| 2026-04-26 04:12 | 33.80814 | -118.50233 | 9232 ft | 293 kts | 191° |
| 2026-04-26 04:12 | 33.78802 | -118.50566 | 10207 ft | 292 kts | 191° |
| 2026-04-26 04:13 | 33.76747 | -118.50881 | 10837 ft | 307 kts | 187° |
| 2026-04-26 04:13 | 33.74543 | -118.50774 | 11466 ft | 326 kts | 175° |
| 2026-04-26 04:13 | 33.72291 | -118.50026 | 12133 ft | 346 kts | 162° |
| 2026-04-26 04:13 | 33.70135 | -118.48563 | 12847 ft | 368 kts | 147° |
| 2026-04-26 04:14 | 33.68218 | -118.46313 | 13569 ft | 392 kts | 132° |
| 2026-04-26 04:14 | 33.66848 | -118.43417 | 14393 ft | 413 kts | 115° |
| 2026-04-26 04:14 | 33.65906 | -118.40112 | 15394 ft | 424 kts | 111° |
| 2026-04-26 04:14 | 33.65002 | -118.36706 | 16372 ft | 434 kts | 108° |
| 2026-04-26 04:15 | 33.64431 | -118.33144 | 16792 ft | 441 kts | 98° |
| 2026-04-26 04:15 | 33.64315 | -118.29377 | 16838 ft | 441 kts | 90° |
| 2026-04-26 04:15 | 33.64353 | -118.25715 | 16839 ft | 441 kts | 90° |
| 2026-04-26 04:15 | 33.64389 | -118.22003 | 16839 ft | 440 kts | 90° |
| 2026-04-26 04:16 | 33.64414 | -118.18321 | 16844 ft | 441 kts | 90° |
| 2026-04-26 04:16 | 33.64431 | -118.14552 | 17152 ft | 456 kts | 90° |
| 2026-04-26 04:16 | 33.64441 | -118.10769 | 18390 ft | 458 kts | 90° |
| 2026-04-26 04:16 | 33.64447 | -118.06922 | 19845 ft | 454 kts | 90° |
| 2026-04-26 04:17 | 33.64450 | -118.03165 | 20928 ft | 459 kts | 89° |
| 2026-04-26 04:17 | 33.64450 | -117.99253 | 21768 ft | 469 kts | 89° |
| 2026-04-26 04:17 | 33.64447 | -117.95304 | 22640 ft | 477 kts | 89° |
| 2026-04-26 04:17 | 33.64442 | -117.91278 | 23576 ft | 483 kts | 88° |
| 2026-04-26 04:18 | 33.64435 | -117.87277 | 24405 ft | 491 kts | 88° |
| 2026-04-26 04:18 | 33.64422 | -117.83090 | 25188 ft | 499 kts | 90° |
| 2026-04-26 04:18 | 33.64093 | -117.78841 | 25929 ft | 508 kts | 99° |
| 2026-04-26 04:18 | 33.63266 | -117.74706 | 26678 ft | 515 kts | 106° |
| 2026-04-26 04:19 | 33.62262 | -117.70596 | 27442 ft | 521 kts | 107° |
| 2026-04-26 04:19 | 33.61230 | -117.66436 | 28190 ft | 528 kts | 107° |
| 2026-04-26 04:19 | 33.60177 | -117.62200 | 28913 ft | 535 kts | 107° |
| 2026-04-26 04:19 | 33.59111 | -117.57906 | 29728 ft | 538 kts | 107° |
| 2026-04-26 04:20 | 33.58047 | -117.53622 | 30735 ft | 537 kts | 108° |
| 2026-04-26 04:20 | 33.56989 | -117.49366 | 31795 ft | 532 kts | 107° |
| 2026-04-26 04:20 | 33.55937 | -117.45134 | 32764 ft | 529 kts | 107° |
| 2026-04-26 04:20 | 33.54905 | -117.40993 | 33568 ft | 527 kts | 107° |
| 2026-04-26 04:21 | 33.53848 | -117.36753 | 34313 ft | 527 kts | 107° |
| 2026-04-26 04:21 | 33.52802 | -117.32566 | 35011 ft | 525 kts | 108° |
| 2026-04-26 04:21 | 33.51747 | -117.28347 | 35673 ft | 523 kts | 108° |
| 2026-04-26 04:21 | 33.50854 | -117.24147 | 36362 ft | 522 kts | 100° |
| 2026-04-26 04:22 | 33.50448 | -117.19921 | 36826 ft | 524 kts | 92° |
| 2026-04-26 04:22 | 33.50297 | -117.11231 | 36832 ft | 520 kts | 90° |
| 2026-04-26 04:23 | 33.50194 | -117.02616 | 36835 ft | 520 kts | 90° |
| 2026-04-26 04:23 | 33.50078 | -116.93956 | 36840 ft | 520 kts | 90° |
| 2026-04-26 04:24 | 33.49952 | -116.85343 | 36851 ft | 520 kts | 90° |
| 2026-04-26 04:24 | 33.49819 | -116.76708 | 36861 ft | 520 kts | 90° |
| 2026-04-26 04:25 | 33.49677 | -116.68048 | 36868 ft | 520 kts | 90° |
| 2026-04-26 04:25 | 33.49530 | -116.59423 | 36871 ft | 519 kts | 90° |
| 2026-04-26 04:26 | 33.49376 | -116.50790 | 36875 ft | 520 kts | 90° |
| 2026-04-26 04:26 | 33.49215 | -116.42136 | 36872 ft | 520 kts | 90° |
| 2026-04-26 04:27 | 33.49086 | -116.33540 | 36857 ft | 520 kts | 90° |
| 2026-04-26 04:27 | 33.48958 | -116.24876 | 36841 ft | 520 kts | 90° |
| 2026-04-26 04:28 | 33.48824 | -116.16341 | 36833 ft | 520 kts | 90° |
| 2026-04-26 04:28 | 33.48703 | -116.07681 | 36800 ft | 520 kts | 87° |
| 2026-04-26 04:29 | 33.49902 | -115.99150 | 36782 ft | 531 kts | 71° |
| 2026-04-26 04:29 | 33.52345 | -115.90648 | 36734 ft | 550 kts | 71° |
| 2026-04-26 04:30 | 33.54892 | -115.81937 | 36769 ft | 557 kts | 71° |
| 2026-04-26 04:30 | 33.57445 | -115.73175 | 36831 ft | 557 kts | 71° |
| 2026-04-26 04:31 | 33.59994 | -115.64398 | 36839 ft | 557 kts | 71° |
| 2026-04-26 04:31 | 33.62487 | -115.55648 | 36790 ft | 556 kts | 75° |
| 2026-04-26 04:32 | 33.63636 | -115.46540 | 36784 ft | 549 kts | 93° |
| 2026-04-26 04:32 | 33.62930 | -115.37540 | 36808 ft | 543 kts | 103° |
| 2026-04-26 04:33 | 33.61996 | -115.28568 | 36787 ft | 543 kts | 101° |
| 2026-04-26 04:33 | 33.61367 | -115.19544 | 36774 ft | 548 kts | 99° |
| 2026-04-26 04:34 | 33.60892 | -115.10429 | 36762 ft | 547 kts | 98° |
| 2026-04-26 04:34 | 33.60511 | -115.01310 | 36759 ft | 548 kts | 97° |
| 2026-04-26 04:35 | 33.60180 | -114.92193 | 36754 ft | 548 kts | 97° |
| 2026-04-26 04:35 | 33.59875 | -114.83099 | 36749 ft | 548 kts | 97° |
| 2026-04-26 04:35 | 33.59712 | -114.78506 | 36586 ft | 542 kts | 99° |
| 2026-04-26 04:36 | 33.59234 | -114.74105 | 35687 ft | 539 kts | 107° |
| 2026-04-26 04:36 | 33.58424 | -114.69730 | 34661 ft | 543 kts | 109° |
| 2026-04-26 04:36 | 33.57560 | -114.65325 | 33736 ft | 547 kts | 109° |
| 2026-04-26 04:36 | 33.56685 | -114.60884 | 32827 ft | 551 kts | 109° |
| 2026-04-26 04:37 | 33.55806 | -114.56414 | 31829 ft | 556 kts | 108° |
| 2026-04-26 04:37 | 33.54919 | -114.51904 | 30793 ft | 561 kts | 108° |
| 2026-04-26 04:37 | 33.54024 | -114.47342 | 29948 ft | 560 kts | 107° |
| 2026-04-26 04:37 | 33.53148 | -114.42876 | 29374 ft | 553 kts | 107° |
| 2026-04-26 04:38 | 33.52272 | -114.38411 | 28746 ft | 547 kts | 107° |
| 2026-04-26 04:38 | 33.51401 | -114.33985 | 28086 ft | 542 kts | 108° |
| 2026-04-26 04:38 | 33.50547 | -114.29658 | 27407 ft | 537 kts | 108° |
| 2026-04-26 04:38 | 33.49688 | -114.25309 | 26731 ft | 532 kts | 108° |
| 2026-04-26 04:39 | 33.48846 | -114.21059 | 26073 ft | 526 kts | 108° |
| 2026-04-26 04:39 | 33.48022 | -114.16905 | 25420 ft | 521 kts | 108° |
| 2026-04-26 04:39 | 33.47195 | -114.12740 | 24877 ft | 513 kts | 108° |
| 2026-04-26 04:39 | 33.46382 | -114.08648 | 24782 ft | 495 kts | 108° |
| 2026-04-26 04:40 | 33.45643 | -114.04939 | 24776 ft | 477 kts | 108° |
| 2026-04-26 04:40 | 33.44883 | -114.01144 | 24779 ft | 460 kts | 108° |
| 2026-04-26 04:40 | 33.44148 | -113.97489 | 24785 ft | 454 kts | 108° |
| 2026-04-26 04:40 | 33.43406 | -113.93816 | 24786 ft | 455 kts | 108° |
| 2026-04-26 04:41 | 33.42660 | -113.90115 | 24785 ft | 455 kts | 108° |
| 2026-04-26 04:41 | 33.41927 | -113.86469 | 24683 ft | 448 kts | 108° |
| 2026-04-26 04:41 | 33.41201 | -113.82856 | 24241 ft | 443 kts | 108° |
| 2026-04-26 04:41 | 33.40482 | -113.79296 | 23597 ft | 444 kts | 108° |
| 2026-04-26 04:42 | 33.39762 | -113.75737 | 23024 ft | 442 kts | 108° |
| 2026-04-26 04:42 | 33.39043 | -113.72181 | 22567 ft | 438 kts | 108° |
| 2026-04-26 04:42 | 33.38335 | -113.68678 | 22129 ft | 433 kts | 108° |
| 2026-04-26 04:42 | 33.37623 | -113.65169 | 21652 ft | 430 kts | 108° |
| 2026-04-26 04:43 | 33.36920 | -113.61709 | 21171 ft | 426 kts | 108° |
| 2026-04-26 04:43 | 33.36225 | -113.58292 | 20778 ft | 422 kts | 108° |
| 2026-04-26 04:43 | 33.35537 | -113.54916 | 20477 ft | 423 kts | 108° |
| 2026-04-26 04:43 | 33.34841 | -113.51509 | 20191 ft | 422 kts | 108° |
| 2026-04-26 04:44 | 33.34144 | -113.48095 | 19908 ft | 419 kts | 108° |
| 2026-04-26 04:44 | 33.33461 | -113.44714 | 19627 ft | 418 kts | 106° |
| 2026-04-26 04:44 | 33.32871 | -113.41318 | 19358 ft | 417 kts | 105° |
| 2026-04-26 04:44 | 33.32303 | -113.37966 | 19090 ft | 416 kts | 105° |
| 2026-04-26 04:45 | 33.31728 | -113.34588 | 18819 ft | 414 kts | 105° |
| 2026-04-26 04:45 | 33.31152 | -113.31222 | 18535 ft | 411 kts | 105° |
| 2026-04-26 04:45 | 33.30577 | -113.27880 | 18264 ft | 410 kts | 106° |
| 2026-04-26 04:45 | 33.30002 | -113.24551 | 17999 ft | 408 kts | 105° |
| 2026-04-26 04:46 | 33.29464 | -113.21362 | 17744 ft | 407 kts | 104° |
| 2026-04-26 04:46 | 33.28988 | -113.18019 | 17532 ft | 405 kts | 103° |
| 2026-04-26 04:46 | 33.28539 | -113.14818 | 17367 ft | 406 kts | 103° |
| 2026-04-26 04:46 | 33.28071 | -113.11507 | 17131 ft | 404 kts | 103° |
| 2026-04-26 04:47 | 33.27615 | -113.08210 | 16863 ft | 396 kts | 101° |
| 2026-04-26 04:47 | 33.27496 | -113.04970 | 16610 ft | 390 kts | 92° |
| 2026-04-26 04:47 | 33.27567 | -113.01770 | 16361 ft | 385 kts | 91° |
| 2026-04-26 04:47 | 33.27648 | -112.98598 | 16109 ft | 383 kts | 91° |
| 2026-04-26 04:48 | 33.27808 | -112.92230 | 15603 ft | 381 kts | 91° |
| 2026-04-26 04:48 | 33.27886 | -112.89088 | 15355 ft | 380 kts | 91° |
| 2026-04-26 04:48 | 33.27962 | -112.85980 | 15107 ft | 375 kts | 91° |
| 2026-04-26 04:49 | 33.28038 | -112.82893 | 14863 ft | 367 kts | 91° |
| 2026-04-26 04:49 | 33.28173 | -112.79891 | 14627 ft | 362 kts | 86° |
| 2026-04-26 04:49 | 33.28478 | -112.76923 | 14394 ft | 357 kts | 85° |
| 2026-04-26 04:49 | 33.28785 | -112.73988 | 14161 ft | 357 kts | 85° |
| 2026-04-26 04:50 | 33.29079 | -112.71047 | 13926 ft | 356 kts | 85° |
| 2026-04-26 04:50 | 33.29363 | -112.68130 | 13696 ft | 354 kts | 86° |
| 2026-04-26 04:50 | 33.29646 | -112.65176 | 13465 ft | 353 kts | 86° |
| 2026-04-26 04:50 | 33.29921 | -112.62272 | 13236 ft | 352 kts | 86° |
| 2026-04-26 04:51 | 33.30191 | -112.59380 | 13008 ft | 349 kts | 86° |
| 2026-04-26 04:51 | 33.30459 | -112.56507 | 12782 ft | 347 kts | 86° |
| 2026-04-26 04:51 | 33.30722 | -112.53672 | 12559 ft | 345 kts | 86° |
| 2026-04-26 04:51 | 33.30985 | -112.50824 | 12335 ft | 343 kts | 85° |
| 2026-04-26 04:52 | 33.31246 | -112.47997 | 12114 ft | 341 kts | 86° |
| 2026-04-26 04:52 | 33.31504 | -112.45186 | 11898 ft | 339 kts | 85° |
| 2026-04-26 04:52 | 33.31757 | -112.42426 | 11689 ft | 337 kts | 85° |
| 2026-04-26 04:52 | 33.32010 | -112.39663 | 11485 ft | 335 kts | 85° |
| 2026-04-26 04:53 | 33.32262 | -112.36908 | 11276 ft | 333 kts | 86° |
| 2026-04-26 04:53 | 33.32515 | -112.34129 | 11058 ft | 332 kts | 86° |
| 2026-04-26 04:53 | 33.32764 | -112.31400 | 10837 ft | 329 kts | 86° |
| 2026-04-26 04:53 | 33.33012 | -112.28692 | 10625 ft | 327 kts | 86° |
| 2026-04-26 04:54 | 33.33257 | -112.26005 | 10417 ft | 326 kts | 86° |
| 2026-04-26 04:54 | 33.33498 | -112.23341 | 10194 ft | 321 kts | 86° |
| 2026-04-26 04:54 | 33.33739 | -112.20689 | 9957 ft | 315 kts | 86° |
| 2026-04-26 04:54 | 33.33972 | -112.18108 | 9670 ft | 311 kts | 86° |
| 2026-04-26 04:55 | 33.34201 | -112.15564 | 9470 ft | 304 kts | 86° |
| 2026-04-26 04:55 | 33.34424 | -112.13092 | 9276 ft | 297 kts | 86° |
| 2026-04-26 04:55 | 33.34641 | -112.10680 | 9084 ft | 288 kts | 86° |
| 2026-04-26 04:55 | 33.34756 | -112.08330 | 8882 ft | 278 kts | 92° |
| 2026-04-26 04:56 | 33.34737 | -112.06026 | 8573 ft | 273 kts | 94° |
| 2026-04-26 04:56 | 33.34702 | -112.03776 | 8271 ft | 267 kts | 94° |
| 2026-04-26 04:56 | 33.34671 | -112.01599 | 7998 ft | 262 kts | 93° |
| 2026-04-26 04:56 | 33.34642 | -111.99424 | 7714 ft | 260 kts | 93° |
| 2026-04-26 04:57 | 33.34614 | -111.97264 | 7439 ft | 257 kts | 93° |
| 2026-04-26 04:57 | 33.34587 | -111.95155 | 7165 ft | 254 kts | 93° |
| 2026-04-26 04:57 | 33.34633 | -111.93059 | 6988 ft | 251 kts | 89° |
| 2026-04-26 04:57 | 33.34736 | -111.91012 | 6771 ft | 242 kts | 88° |
| 2026-04-26 04:58 | 33.34837 | -111.89030 | 6495 ft | 241 kts | 88° |
| 2026-04-26 04:58 | 33.34935 | -111.87017 | 6209 ft | 237 kts | 88° |
| 2026-04-26 04:58 | 33.35025 | -111.85097 | 5928 ft | 230 kts | 88° |
| 2026-04-26 04:58 | 33.35120 | -111.83201 | 5644 ft | 226 kts | 88° |
| 2026-04-26 04:59 | 33.35216 | -111.81322 | 5355 ft | 227 kts | 88° |
| 2026-04-26 04:59 | 33.35310 | -111.79472 | 5077 ft | 226 kts | 88° |
| 2026-04-26 04:59 | 33.35412 | -111.77594 | 4789 ft | 226 kts | 88° |
| 2026-04-26 04:59 | 33.35516 | -111.75706 | 4502 ft | 225 kts | 88° |
| 2026-04-26 05:00 | 33.35621 | -111.73857 | 4218 ft | 224 kts | 86° |
| 2026-04-26 05:00 | 33.36137 | -111.72137 | 4006 ft | 222 kts | 52° |
| 2026-04-26 05:00 | 33.37373 | -111.71040 | 3979 ft | 223 kts | 22° |
| 2026-04-26 05:00 | 33.38750 | -111.70165 | 3979 ft | 218 kts | 28° |
| 2026-04-26 05:01 | 33.40070 | -111.69435 | 3983 ft | 202 kts | 14° |
| 2026-04-26 05:01 | 33.41340 | -111.69132 | 3958 ft | 170 kts | 345° |
| 2026-04-26 05:01 | 33.42282 | -111.69730 | 3958 ft | 146 kts | 302° |
| 2026-04-26 05:01 | 33.42883 | -111.70666 | 3974 ft | 140 kts | 297° |
| 2026-04-26 05:02 | 33.43356 | -111.71668 | 3983 ft | 137 kts | 290° |
| 2026-04-26 05:02 | 33.43772 | -111.72666 | 3976 ft | 132 kts | 283° |
| 2026-04-26 05:02 | 33.43958 | -111.73738 | 3977 ft | 132 kts | 270° |
| 2026-04-26 05:02 | 33.43995 | -111.74817 | 3972 ft | 128 kts | 266° |
| 2026-04-26 05:03 | 33.44005 | -111.75880 | 3968 ft | 127 kts | 265° |
| 2026-04-26 05:03 | 33.44010 | -111.76942 | 3973 ft | 128 kts | 265° |
| 2026-04-26 05:03 | 33.44014 | -111.77999 | 3978 ft | 127 kts | 265° |
| 2026-04-26 05:03 | 33.44018 | -111.79070 | 3981 ft | 127 kts | 265° |
| 2026-04-26 05:04 | 33.44022 | -111.80117 | 3973 ft | 127 kts | 265° |
| 2026-04-26 05:04 | 33.44026 | -111.81186 | 3950 ft | 128 kts | 266° |
| 2026-04-26 05:04 | 33.44030 | -111.82256 | 3784 ft | 128 kts | 265° |
| 2026-04-26 05:04 | 33.44034 | -111.83318 | 3636 ft | 127 kts | 265° |
| 2026-04-26 05:05 | 33.44038 | -111.84377 | 3473 ft | 126 kts | 265° |
| 2026-04-26 05:05 | 33.44041 | -111.85432 | 3318 ft | 126 kts | 265° |
| 2026-04-26 05:05 | 33.44045 | -111.86480 | 3166 ft | 126 kts | 265° |
| 2026-04-26 05:05 | 33.44049 | -111.87522 | 3004 ft | 124 kts | 265° |
| 2026-04-26 05:06 | 33.44051 | -111.88571 | 2842 ft | 125 kts | 265° |
| 2026-04-26 05:06 | 33.44054 | -111.89602 | 2683 ft | 126 kts | 265° |
| 2026-04-26 05:06 | 33.44058 | -111.90657 | 2508 ft | 125 kts | 265° |
| 2026-04-26 05:06 | 33.44058 | -111.91700 | 2316 ft | 124 kts | 265° |
| 2026-04-26 05:07 | 33.44064 | -111.92731 | 2164 ft | 126 kts | 266° |
| 2026-04-26 05:07 | 33.44061 | -111.93777 | 2017 ft | 125 kts | 265° |
| 2026-04-26 05:07 | 33.44066 | -111.94825 | 1845 ft | 126 kts | 265° |
| 2026-04-26 05:07 | 33.44074 | -111.95874 | 1698 ft | 126 kts | 266° |
| 2026-04-26 05:08 | 33.44075 | -111.96917 | 1528 ft | 126 kts | 266° |
| 2026-04-26 05:08 | 33.44081 | -111.97980 | 1338 ft | 125 kts | 265° |
| 2026-04-26 05:08 | 33.44083 | -111.99029 | 1194 ft | 127 kts | 266° |
| 2026-04-26 05:08 | 33.44080 | -112.00008 | 1143 ft | 98 kts | 270° |
| 2026-04-26 05:09 | 33.44082 | -112.00676 | 1140 ft | 63 kts | 270° |
| 2026-04-26 05:09 | 33.44075 | -112.00983 | 1139 ft | 27 kts | 254° |
| 2026-04-26 05:09 | 33.43989 | -112.01052 | 1139 ft | 13 kts | 128° |
| 2026-04-26 05:09 | 33.43975 | -112.00940 | 1139 ft | 13 kts | 90° |
| 2026-04-26 05:10 | 33.43974 | -112.00828 | 1140 ft | 13 kts | 88° |
| 2026-04-26 05:10 | 33.43975 | -112.00706 | 1140 ft | 15 kts | 90° |
| 2026-04-26 05:10 | 33.43973 | -112.00562 | 1141 ft | 19 kts | 91° |
| 2026-04-26 05:10 | 33.43973 | -112.00381 | 1141 ft | 23 kts | 90° |
| 2026-04-26 05:11 | 33.43974 | -112.00169 | 1142 ft | 27 kts | 89° |
| 2026-04-26 05:11 | 33.43975 | -111.99928 | 1142 ft | 30 kts | 90° |
| 2026-04-26 05:11 | 33.43974 | -111.99667 | 1143 ft | 30 kts | 90° |
| 2026-04-26 05:11 | 33.43973 | -111.99429 | 1144 ft | 26 kts | 90° |
| 2026-04-26 05:12 | 33.43958 | -111.99262 | 1144 ft | 16 kts | 140° |
| 2026-04-26 05:12 | 33.43885 | -111.99268 | 1143 ft | 6 kts | 226° |
| 2026-04-26 05:12 | 33.43861 | -111.99314 | 1143 ft | 6 kts | 233° |
| 2026-04-26 05:12 | 33.43831 | -111.99361 | 1142 ft | 5 kts | 232° |
| 2026-04-26 05:13 | 33.43826 | -111.99367 | 1142 ft | 0 kts | 232° |